createdAt,value
2022-08-17T00:02:27.287Z,97695.33
2022-08-17T00:05:33.625Z,97692.01
2022-08-17T00:08:42.469Z,97692.09
2022-08-17T00:12:34.982Z,97689.00
2022-08-17T00:15:10.590Z,97686.22
2022-08-17T00:19:01.314Z,97689.60
2022-08-17T00:22:29.462Z,97683.71
2022-08-17T00:25:08.107Z,97685.77
2022-08-17T00:28:12.328Z,97684.94
2022-08-17T00:31:15.493Z,97687.36
2022-08-17T00:34:19.015Z,97688.17
2022-08-17T00:37:22.043Z,97688.81
2022-08-17T00:40:25.018Z,97690.89
2022-08-17T00:43:35.855Z,97691.92
2022-08-17T00:46:41.080Z,97698.35
2022-08-17T00:49:43.965Z,97700.86
2022-08-17T00:52:54.998Z,97699.86
2022-08-17T00:56:01.762Z,97699.47
2022-08-17T00:59:07.702Z,97700.96
2022-08-17T01:02:14.725Z,97698.46
2022-08-17T01:05:25.560Z,97696.92
2022-08-17T01:08:30.629Z,97693.68
2022-08-17T01:11:36.228Z,97694.80
2022-08-17T01:14:40.548Z,97696.35
2022-08-17T01:17:45.259Z,97694.91
2022-08-17T01:20:53.687Z,97695.48
2022-08-17T01:23:57.054Z,97693.16
2022-08-17T01:27:00.780Z,97686.56
2022-08-17T01:30:58.839Z,97695.61
2022-08-17T01:33:32.496Z,97694.11
2022-08-17T01:36:37.669Z,97697.34
2022-08-17T01:39:45.840Z,97696.34
2022-08-17T01:42:56.026Z,97695.01
2022-08-17T01:46:02.424Z,97691.91
2022-08-17T01:49:08.397Z,97690.54
2022-08-17T01:52:12.267Z,97692.35
2022-08-17T01:55:25.889Z,97698.91
2022-08-17T01:58:32.271Z,97698.52
2022-08-17T02:01:36.105Z,97696.98
2022-08-17T02:04:39.065Z,97696.94
2022-08-17T02:07:47.992Z,97697.39
2022-08-17T02:11:06.201Z,97699.95
2022-08-17T02:14:14.602Z,97699.09
2022-08-17T02:17:17.531Z,97695.91
2022-08-17T02:20:41.724Z,97695.64
2022-08-17T02:23:47.756Z,97694.90
2022-08-17T02:26:50.693Z,97695.90
2022-08-17T02:29:53.613Z,97698.25
2022-08-17T02:32:56.577Z,97696.08
2022-08-17T02:35:59.744Z,97695.63
2022-08-17T02:39:05.809Z,97697.42
2022-08-17T02:42:08.825Z,97698.20
2022-08-17T02:45:18.199Z,97697.50
2022-08-17T02:48:28.157Z,97697.50
2022-08-17T02:51:35.338Z,97697.15
2022-08-17T02:54:41.442Z,97702.23
2022-08-17T02:57:45.579Z,97703.13
2022-08-17T03:00:48.747Z,97703.72
2022-08-17T03:03:51.686Z,97703.54
2022-08-17T03:06:54.585Z,97703.88
2022-08-17T03:09:57.486Z,97703.89
2022-08-17T03:13:00.570Z,97706.35
2022-08-17T03:16:03.648Z,97702.63
2022-08-17T03:19:06.506Z,97704.39
2022-08-17T03:22:36.085Z,97706.77
2022-08-17T03:25:36.725Z,97705.09
2022-08-17T03:28:41.594Z,97706.80
2022-08-17T03:31:46.927Z,97706.91
2022-08-17T03:34:49.875Z,97714.15
2022-08-17T03:38:00.531Z,97715.55
2022-08-17T03:41:06.079Z,97716.88
2022-08-17T03:44:09.163Z,97719.23
2022-08-17T03:47:30.471Z,97723.46
2022-08-17T03:50:51.817Z,97724.39
2022-08-17T03:54:16.662Z,97724.03
2022-08-17T03:57:19.869Z,97730.27
2022-08-17T04:00:22.790Z,97731.36
2022-08-17T04:03:25.653Z,97737.50
2022-08-17T04:06:28.782Z,97738.63
2022-08-17T04:09:31.647Z,97742.29
2022-08-17T04:12:47.894Z,97741.64
2022-08-17T04:15:50.829Z,97743.64
2022-08-17T04:18:53.787Z,97745.56
2022-08-17T04:21:57.924Z,97744.79
2022-08-17T04:25:15.987Z,97747.80
2022-08-17T04:28:19.891Z,97750.80
2022-08-17T04:31:22.982Z,97757.52
2022-08-17T04:34:25.954Z,97764.94
2022-08-17T04:37:28.844Z,97767.20
2022-08-17T04:40:50.585Z,97765.80
2022-08-17T04:43:58.502Z,97766.70
2022-08-17T04:47:01.439Z,97768.77
2022-08-17T04:50:04.625Z,97768.79
2022-08-17T04:53:07.561Z,97773.38
2022-08-17T04:56:16.899Z,97768.40
2022-08-17T04:59:22.762Z,97764.39
2022-08-17T05:02:25.657Z,97768.30
2022-08-17T05:05:32.137Z,97773.85
2022-08-17T05:08:35.283Z,97776.29
2022-08-17T05:11:38.429Z,97777.66
2022-08-17T05:14:47.992Z,97773.55
2022-08-17T05:17:50.836Z,97772.63
2022-08-17T05:20:54.012Z,97770.60
2022-08-17T05:23:58.627Z,97771.98
2022-08-17T05:27:06.461Z,97773.08
2022-08-17T05:30:10.126Z,97776.52
2022-08-17T05:33:22.561Z,97783.16
2022-08-17T05:36:43.306Z,97787.68
2022-08-17T05:39:47.332Z,97781.66
2022-08-17T05:42:51.103Z,97785.44
2022-08-17T05:46:15.359Z,97778.92
2022-08-17T05:49:27.327Z,97780.66
2022-08-17T05:52:37.639Z,97781.91
2022-08-17T05:55:55.740Z,97781.02
2022-08-17T05:59:20.043Z,97777.18
2022-08-17T06:03:08.326Z,97779.55
2022-08-17T06:06:40.841Z,97776.11
2022-08-17T06:10:03.051Z,97769.33
2022-08-17T06:13:11.985Z,97771.51
2022-08-17T06:16:33.019Z,97774.42
2022-08-17T06:19:46.324Z,97770.80
2022-08-17T06:22:55.865Z,97769.50
2022-08-17T06:26:11.946Z,97768.77
2022-08-17T06:29:19.339Z,97769.73
2022-08-17T06:36:37.667Z,97768.73
2022-08-17T06:39:52.787Z,97770.80
2022-08-17T06:43:20.516Z,97770.52
2022-08-17T06:46:49.032Z,97774.72
2022-08-17T06:50:05.568Z,97778.31
2022-08-17T06:53:17.736Z,97780.31
2022-08-17T06:56:53.013Z,97782.52
2022-08-17T07:00:08.969Z,97776.92
2022-08-17T07:03:16.536Z,97780.76
2022-08-17T07:06:28.101Z,97781.02
2022-08-17T07:09:37.389Z,97785.64
2022-08-17T07:12:43.404Z,97784.67
2022-08-17T07:15:51.806Z,97783.79
2022-08-17T07:18:59.541Z,97786.36
2022-08-17T07:22:18.099Z,97789.54
2022-08-17T07:25:21.758Z,97784.70
2022-08-17T07:28:26.396Z,97790.92
2022-08-17T07:31:31.667Z,97792.72
2022-08-17T07:35:13.055Z,97788.20
2022-08-17T07:38:26.995Z,97791.63
2022-08-17T07:41:58.103Z,97795.27
2022-08-17T07:45:23.088Z,97795.48
2022-08-17T07:48:27.239Z,97789.84
2022-08-17T07:51:33.537Z,97792.88
2022-08-17T07:54:46.777Z,97799.58
2022-08-17T07:58:03.660Z,97804.46
2022-08-17T08:01:15.480Z,97807.09
2022-08-17T08:08:01.688Z,97810.70
2022-08-17T08:11:28.452Z,97811.73
2022-08-17T08:14:38.392Z,97814.64
2022-08-17T08:17:50.656Z,97817.54
2022-08-17T08:20:59.448Z,97819.79
2022-08-17T08:24:59.080Z,97822.18
2022-08-17T08:28:38.430Z,97818.98
2022-08-17T08:32:21.961Z,97813.59
2022-08-17T08:35:32.071Z,97810.63
2022-08-17T08:38:50.103Z,97805.58
2022-08-17T08:42:18.444Z,97805.63
2022-08-17T08:45:34.173Z,97802.91
2022-08-17T08:49:17.074Z,97809.03
2022-08-17T08:52:48.218Z,97806.50
2022-08-17T08:55:56.923Z,97806.98
2022-08-17T08:59:26.183Z,97808.83
2022-08-17T09:02:38.290Z,97807.25
2022-08-17T09:05:56.668Z,97809.52
2022-08-17T09:09:02.938Z,97808.86
2022-08-17T09:12:18.972Z,97810.55
2022-08-17T09:15:29.855Z,97810.23
2022-08-17T09:19:03.367Z,97810.55
2022-08-17T09:22:12.236Z,97806.86
2022-08-17T09:25:44.276Z,97814.95
2022-08-17T09:28:51.328Z,97818.20
2022-08-17T09:32:01.735Z,97822.23
2022-08-17T09:35:14.562Z,97821.70
2022-08-17T09:38:36.285Z,97819.42
2022-08-17T09:42:10.344Z,97816.20
2022-08-17T09:45:17.041Z,97820.98
2022-08-17T09:48:46.281Z,97816.20
2022-08-17T09:51:55.588Z,97817.27
2022-08-17T09:55:01.065Z,97812.36
2022-08-17T09:58:28.989Z,97811.23
2022-08-17T10:01:43.207Z,97806.09
2022-08-17T10:04:58.266Z,97797.33
2022-08-17T10:08:08.684Z,97798.20
2022-08-17T10:11:17.505Z,97797.28
2022-08-17T10:14:37.457Z,97799.96
2022-08-17T10:18:08.711Z,97800.82
2022-08-17T10:21:33.772Z,97802.36
2022-08-17T10:25:21.761Z,97798.89
2022-08-17T10:28:29.744Z,97801.02
2022-08-17T10:31:46.505Z,97805.08
2022-08-17T10:35:16.742Z,97806.66
2022-08-17T10:38:30.127Z,97812.47
2022-08-17T10:41:45.369Z,97814.85
2022-08-17T10:45:00.544Z,97809.21
2022-08-17T10:48:07.262Z,97809.66
2022-08-17T10:51:38.090Z,97809.66
2022-08-17T10:54:51.903Z,97807.08
2022-08-17T10:58:22.094Z,97806.42
2022-08-17T11:01:34.319Z,97803.54
2022-08-17T11:04:44.109Z,97794.98
2022-08-17T11:08:05.593Z,97791.44
2022-08-17T11:11:20.405Z,97789.17
2022-08-17T11:14:36.394Z,97791.42
2022-08-17T11:17:58.467Z,97795.87
2022-08-17T11:21:20.540Z,97796.95
2022-08-17T11:24:43.415Z,97804.50
2022-08-17T11:28:04.431Z,97804.11
2022-08-17T11:31:38.323Z,97808.20
2022-08-17T11:34:44.650Z,97807.66
2022-08-17T11:38:06.384Z,97807.09
2022-08-17T11:41:32.293Z,97807.67
2022-08-17T11:44:56.437Z,97804.89
2022-08-17T11:48:32.432Z,97795.19
2022-08-17T11:52:05.131Z,97799.27
2022-08-17T11:55:37.471Z,97791.61
2022-08-17T11:58:45.060Z,97788.58
2022-08-17T12:01:55.835Z,97787.60
2022-08-17T12:05:26.153Z,97788.99
2022-08-17T12:08:32.701Z,97780.39
2022-08-17T12:11:58.616Z,97781.92
2022-08-17T12:15:12.569Z,97780.18
2022-08-17T12:18:41.764Z,97783.96
2022-08-17T12:21:57.761Z,97781.93
2022-08-17T12:25:10.340Z,97780.46
2022-08-17T12:28:44.146Z,97777.86
2022-08-17T12:31:49.980Z,97772.61
2022-08-17T12:34:53.976Z,97782.63
2022-08-17T12:37:58.015Z,97783.21
2022-08-17T12:41:22.464Z,97779.80
2022-08-17T12:44:34.604Z,97782.28
2022-08-17T12:47:38.545Z,97784.18
2022-08-17T12:50:45.942Z,97780.19
2022-08-17T12:53:54.887Z,97781.23
2022-08-17T12:57:04.829Z,97777.74
2022-08-17T13:00:16.304Z,97776.48
2022-08-17T13:03:21.806Z,97772.58
2022-08-17T13:06:34.637Z,97776.30
2022-08-17T13:09:40.309Z,97775.92
2022-08-17T13:12:43.527Z,97773.44
2022-08-17T13:15:58.666Z,97769.50
2022-08-17T13:19:13.070Z,97763.73
2022-08-17T13:22:16.733Z,97765.78
2022-08-17T13:25:19.735Z,97767.48
2022-08-17T13:28:30.639Z,97772.27
2022-08-17T13:31:51.821Z,97771.20
2022-08-17T13:35:14.397Z,97772.96
2022-08-17T13:38:41.127Z,97772.77
2022-08-17T13:41:44.675Z,97766.89
2022-08-17T13:44:47.543Z,97763.66
2022-08-17T13:48:23.914Z,97752.98
2022-08-17T13:51:30.052Z,97758.17
2022-08-17T13:54:36.173Z,97763.50
2022-08-17T13:57:46.955Z,97765.09
2022-08-17T14:00:51.699Z,97770.22
2022-08-17T14:03:55.275Z,97769.53
2022-08-17T14:07:01.319Z,97768.31
2022-08-17T14:10:07.379Z,97769.75
2022-08-17T14:13:10.259Z,97766.13
2022-08-17T14:16:13.484Z,97766.19
2022-08-17T14:19:16.718Z,97762.36
2022-08-17T14:22:27.042Z,97766.14
2022-08-17T14:25:30.137Z,97771.55
2022-08-17T14:28:33.130Z,97769.23
2022-08-17T14:31:39.306Z,97764.94
2022-08-17T14:34:42.948Z,97765.04
2022-08-17T14:37:45.981Z,97763.83
2022-08-17T14:40:49.309Z,97762.81
2022-08-17T14:43:56.250Z,97762.91
2022-08-17T14:46:59.235Z,97769.38
2022-08-17T14:50:04.674Z,97772.61
2022-08-17T14:53:14.320Z,97773.34
2022-08-17T14:56:17.482Z,97769.88
2022-08-17T14:59:20.333Z,97768.05
2022-08-17T15:02:30.188Z,97772.89
2022-08-17T15:05:46.390Z,97774.23
2022-08-17T15:08:50.347Z,97771.48
2022-08-17T15:11:54.015Z,97773.98
2022-08-17T15:14:57.687Z,97774.63
2022-08-17T15:18:01.248Z,97770.33
2022-08-17T15:21:06.875Z,97770.35
2022-08-17T15:24:09.850Z,97767.56
2022-08-17T15:27:13.057Z,97769.81
2022-08-17T15:30:16.517Z,97771.23
2022-08-17T15:33:24.077Z,97772.39
2022-08-17T15:36:27.007Z,97772.35
2022-08-17T15:39:30.003Z,97770.38
2022-08-17T15:42:34.018Z,97771.19
2022-08-17T15:45:37.757Z,97771.44
2022-08-17T15:48:42.507Z,97770.35
2022-08-17T15:51:46.120Z,97766.39
2022-08-17T15:54:58.414Z,97766.57
2022-08-17T15:58:01.600Z,97762.39
2022-08-17T16:01:14.300Z,97765.52
2022-08-17T16:04:28.437Z,97766.21
2022-08-17T16:07:38.482Z,97764.75
2022-08-17T16:10:41.645Z,97768.28
2022-08-17T16:13:47.377Z,97770.20
2022-08-17T16:16:59.176Z,97769.73
2022-08-17T16:20:02.416Z,97774.34
2022-08-17T16:23:05.630Z,97771.88
2022-08-17T16:26:09.152Z,97769.34
2022-08-17T16:29:13.078Z,97765.04
2022-08-17T16:32:31.879Z,97773.07
2022-08-17T16:36:37.660Z,97771.13
2022-08-17T16:39:41.303Z,97775.92
2022-08-17T16:42:46.146Z,97780.00
2022-08-17T16:45:52.118Z,97784.85
2022-08-17T16:48:57.179Z,97785.27
2022-08-17T16:52:03.366Z,97785.42
2022-08-17T16:55:09.025Z,97785.59
2022-08-17T16:58:12.764Z,97786.99
2022-08-17T17:01:15.894Z,97789.21
2022-08-17T17:04:19.513Z,97794.02
2022-08-17T17:07:44.174Z,97795.77
2022-08-17T17:10:51.600Z,97797.18
2022-08-17T17:14:01.653Z,97795.04
2022-08-17T17:17:25.011Z,97802.32
2022-08-17T17:20:35.523Z,97805.17
2022-08-17T17:23:46.585Z,97809.06
2022-08-17T17:27:07.515Z,97806.20
2022-08-17T17:30:34.389Z,97809.02
2022-08-17T17:33:43.587Z,97806.81
2022-08-17T17:36:54.793Z,97807.64
2022-08-17T17:40:02.284Z,97812.69
2022-08-17T17:43:34.832Z,97817.30
2022-08-17T17:46:40.007Z,97817.30
2022-08-17T17:49:45.865Z,97821.04
2022-08-17T17:52:59.662Z,97822.66
2022-08-17T17:56:43.037Z,97823.47
2022-08-17T17:59:59.533Z,97829.82
2022-08-17T18:03:40.081Z,97834.83
2022-08-17T18:06:57.816Z,97834.70
2022-08-17T18:10:19.454Z,97839.84
2022-08-17T18:13:50.724Z,97836.27
2022-08-17T18:16:57.156Z,97842.65
2022-08-17T18:20:00.253Z,97843.14
2022-08-17T18:23:04.233Z,97838.55
2022-08-17T18:26:07.294Z,97836.08
2022-08-17T18:29:31.322Z,97835.14
2022-08-17T18:32:36.430Z,97841.25
2022-08-17T18:35:39.407Z,97840.42
2022-08-17T18:38:43.964Z,97842.43
2022-08-17T18:41:52.818Z,97843.74
2022-08-17T18:44:56.276Z,97847.98
2022-08-17T18:48:27.153Z,97846.51
2022-08-17T18:51:50.341Z,97854.58
2022-08-17T18:55:12.138Z,97859.60
2022-08-17T18:58:17.887Z,97864.50
2022-08-17T19:01:21.428Z,97863.70
2022-08-17T19:05:02.446Z,97865.25
2022-08-17T19:08:17.629Z,97870.36
2022-08-17T19:11:31.790Z,97876.45
2022-08-17T19:14:35.934Z,97877.30
2022-08-17T19:17:52.428Z,97876.95
2022-08-17T19:21:04.019Z,97881.36
2022-08-17T19:24:13.686Z,97881.83
2022-08-17T19:27:26.035Z,97887.15
2022-08-17T19:30:37.945Z,97896.45
2022-08-17T19:33:47.974Z,97898.65
2022-08-17T19:37:00.349Z,97899.30
2022-08-17T19:40:03.201Z,97901.73
2022-08-17T19:43:21.066Z,97900.79
2022-08-17T19:46:43.041Z,97898.06
2022-08-17T19:50:47.371Z,97893.48
2022-08-17T19:58:40.044Z,97888.48
2022-08-17T20:02:58.965Z,97888.39
2022-08-17T20:06:13.742Z,97886.73
2022-08-17T20:10:13.624Z,97882.85
2022-08-17T20:13:33.346Z,97886.29
2022-08-17T20:16:39.768Z,97887.16
2022-08-17T20:19:48.113Z,97888.04
2022-08-17T20:23:04.169Z,97891.89
2022-08-17T20:26:19.987Z,97892.28
2022-08-17T20:29:39.870Z,97885.04
2022-08-17T20:32:52.767Z,97880.56
2022-08-17T20:36:19.699Z,97877.56
2022-08-17T20:39:34.572Z,97873.19
2022-08-17T20:42:39.591Z,97867.38
2022-08-17T20:45:55.710Z,97867.19
2022-08-17T20:49:11.123Z,97875.05
2022-08-17T20:52:56.625Z,97876.59
2022-08-17T20:56:00.951Z,97875.75
2022-08-17T20:59:08.814Z,97875.28
2022-08-17T21:02:21.647Z,97879.21
2022-08-17T21:05:35.269Z,97882.46
2022-08-17T21:08:57.696Z,97881.88
2022-08-17T21:12:05.741Z,97888.24
2022-08-17T21:15:53.720Z,97888.84
2022-08-17T21:19:26.262Z,97884.28
2022-08-17T21:22:38.353Z,97886.90
2022-08-17T21:25:53.185Z,97888.17
2022-08-17T21:29:31.151Z,97891.16
2022-08-17T21:32:38.176Z,97887.63
2022-08-17T21:35:49.532Z,97884.73
2022-08-17T21:39:01.500Z,97882.89
2022-08-17T21:42:06.703Z,97879.50
2022-08-17T21:45:18.144Z,97875.41
2022-08-17T21:48:27.324Z,97875.98
2022-08-17T21:51:31.141Z,97876.81
2022-08-17T21:54:38.697Z,97870.82
2022-08-17T21:57:53.190Z,97866.73
2022-08-17T22:01:23.518Z,97858.17
2022-08-17T22:04:40.195Z,97848.77
2022-08-17T22:07:58.916Z,97850.73
2022-08-17T22:11:02.135Z,97851.63
2022-08-17T22:14:16.753Z,97850.17
2022-08-17T22:17:24.999Z,97848.98
2022-08-17T22:20:28.006Z,97846.83
2022-08-17T22:23:55.914Z,97844.93
2022-08-17T22:27:07.670Z,97844.23
2022-08-17T22:30:34.268Z,97838.41
2022-08-17T22:33:41.622Z,97828.94
2022-08-17T22:36:44.580Z,97833.88
2022-08-17T22:39:57.481Z,97825.95
2022-08-17T22:43:03.626Z,97822.88
2022-08-17T22:46:08.717Z,97829.99
2022-08-17T22:49:11.737Z,97825.45
2022-08-17T22:52:57.920Z,97822.58
2022-08-17T22:56:19.524Z,97829.14
2022-08-17T22:59:56.179Z,97838.10
2022-08-17T23:03:12.508Z,97844.68
2022-08-17T23:06:15.471Z,97859.25
2022-08-17T23:09:18.341Z,97869.60
2022-08-17T23:12:26.443Z,97876.08
2022-08-17T23:15:33.120Z,97876.72
2022-08-17T23:18:37.478Z,97882.66
2022-08-17T23:21:40.442Z,97884.65
2022-08-17T23:24:48.559Z,97887.48
2022-08-17T23:27:51.548Z,97887.89
2022-08-17T23:30:54.606Z,97881.56
2022-08-17T23:33:59.230Z,97882.03
2022-08-17T23:37:02.316Z,97886.67
2022-08-17T23:40:05.958Z,97883.80
2022-08-17T23:43:24.825Z,97882.02
2022-08-17T23:46:28.800Z,97886.14
2022-08-17T23:49:32.445Z,97888.75
2022-08-17T23:52:37.852Z,97894.70
2022-08-17T23:55:40.781Z,97895.85
2022-08-17T23:58:44.827Z,97898.77
